Time;durP1;ratioP1;P1;durP2;ratioP2;P2;SDS_P1;SDS_P2;PMS_P1;PMS_P2;Temp;Humidity;BMP_temperature;BMP_pressure;BME280_temperature;BME280_humidity;BME280_pressure;Samples;Min_cycle;Max_cycle;Signal;HPM_P1;HPM_P2
2022/09/23 00:00:04;;;;;;;5.00;2.90;;;;;;;8.17;100.00;101066.84;689136;28;1242;-64
2022/09/23 00:00:25;;;;;;;5.25;2.90;;;;;;;8.17;100.00;101064.25;690013;28;1008;-64
2022/09/23 00:00:47;;;;;;;6.90;3.10;;;;;;;8.19;100.00;101064.25;690046;28;1182;-63
2022/09/23 00:01:10;;;;;;;6.95;3.10;;;;;;;8.22;100.00;101060.81;684347;28;1147;-64
2022/09/23 00:01:31;;;;;;;4.90;2.90;;;;;;;8.17;100.00;101065.97;684249;28;2636;-65
2022/09/23 00:01:52;;;;;;;5.78;2.92;;;;;;;8.12;100.00;101063.31;684049;28;4580;-64
2022/09/23 00:02:13;;;;;;;5.10;2.75;;;;;;;8.10;100.00;101065.03;684444;28;1297;-64
2022/09/23 00:02:33;;;;;;;4.57;3.00;;;;;;;8.15;100.00;101065.06;685741;28;1089;-65
2022/09/23 00:02:54;;;;;;;4.93;2.80;;;;;;;8.18;100.00;101063.38;687631;28;1151;-66
2022/09/23 00:03:15;;;;;;;4.80;2.97;;;;;;;8.15;100.00;101063.31;689888;28;1381;-65
2022/09/23 00:03:40;;;;;;;6.97;3.22;;;;;;;8.09;100.00;101062.41;688980;28;1100;-64
2022/09/23 00:04:01;;;;;;;5.35;3.20;;;;;;;8.05;100.00;101060.63;688569;28;1163;-65
2022/09/23 00:04:21;;;;;;;6.23;3.10;;;;;;;8.00;100.00;101061.44;688250;28;933;-64
2022/09/23 00:04:42;;;;;;;6.37;3.27;;;;;;;8.03;100.00;101058.00;688695;28;4591;-65
2022/09/23 00:05:02;;;;;;;5.80;3.10;;;;;;;8.02;100.00;101058.84;690080;28;1081;-64
2022/09/23 00:05:23;;;;;;;4.38;2.80;;;;;;;8.04;100.00;101059.72;686600;28;1513;-64
2022/09/23 00:05:43;;;;;;;4.77;2.80;;;;;;;8.07;100.00;101057.19;687790;28;1096;-65
2022/09/23 00:06:09;;;;;;;5.47;2.80;;;;;;;8.12;100.00;101058.09;689865;28;1077;-65
2022/09/23 00:06:30;;;;;;;5.55;2.90;;;;;;;8.13;100.00;101059.00;689395;28;1208;-65
2022/09/23 00:06:50;;;;;;;5.10;3.20;;;;;;;8.12;100.00;101055.50;690255;28;1387;-64
2022/09/23 00:07:11;;;;;;;4.50;2.83;;;;;;;8.23;100.00;101054.75;689911;28;1259;-63
2022/09/23 00:07:31;;;;;;;5.20;3.10;;;;;;;8.23;100.00;101054.75;688351;28;1364;-63
2022/09/23 00:07:53;;;;;;;4.67;2.70;;;;;;;8.26;100.00;101054.78;689317;28;4555;-64
2022/09/23 00:08:14;;;;;;;4.47;3.00;;;;;;;8.19;100.00;101051.22;688685;28;2881;-63
2022/09/23 00:08:34;;;;;;;4.80;2.83;;;;;;;8.16;100.00;101054.66;689972;28;1262;-64
2022/09/23 00:08:55;;;;;;;5.47;2.90;;;;;;;8.11;100.00;101056.38;690148;28;1490;-64
2022/09/23 00:09:15;;;;;;;5.90;3.07;;;;;;;8.12;100.00;101054.63;689786;28;1981;-64
2022/09/23 00:09:35;;;;;;;4.93;2.97;;;;;;;8.22;100.00;101050.41;690291;28;1195;-64
2022/09/23 00:09:56;;;;;;;4.90;3.00;;;;;;;8.26;100.00;101054.78;690664;28;1597;-64
2022/09/23 00:10:16;;;;;;;4.88;2.90;;;;;;;8.22;100.00;101048.66;686647;28;1551;-64
2022/09/23 00:10:38;;;;;;;4.90;2.80;;;;;;;8.18;100.00;101060.78;685736;28;2719;-65
2022/09/23 00:11:11;;;;;;;4.30;2.70;;;;;;;8.12;100.00;101054.63;686428;28;4318;-64
2022/09/23 00:11:32;;;;;;;5.07;2.75;;;;;;;8.07;100.00;101057.19;687316;28;1366;-63
2022/09/23 00:11:52;;;;;;;6.68;2.90;;;;;;;8.06;100.00;101058.03;688699;28;1168;-64
2022/09/23 00:12:12;;;;;;;4.97;2.97;;;;;;;8.09;100.00;101062.41;689750;28;1266;-65
2022/09/23 00:12:33;;;;;;;5.25;2.95;;;;;;;8.08;100.00;101055.44;688151;28;1458;-64
2022/09/23 00:12:54;;;;;;;5.93;3.10;;;;;;;8.08;100.00;101060.66;689797;28;1378;-63
2022/09/23 00:13:14;;;;;;;4.80;2.80;;;;;;;8.11;100.00;101060.69;687254;28;1706;-64
2022/09/23 00:13:36;;;;;;;4.40;2.80;;;;;;;8.12;100.00;101062.44;687522;28;1339;-64
2022/09/23 00:13:58;;;;;;;4.63;2.90;;;;;;;8.16;100.00;101052.06;687050;28;4405;-64
2022/09/23 00:14:20;;;;;;;5.32;3.03;;;;;;;8.15;100.00;101063.31;686575;28;1482;-63
2022/09/23 00:14:40;;;;;;;4.75;2.92;;;;;;;8.16;100.00;101062.47;687259;28;3046;-65
2022/09/23 00:15:01;;;;;;;5.20;2.85;;;;;;;8.20;100.00;101058.19;687283;28;1204;-65
2022/09/23 00:15:24;;;;;;;4.28;2.78;;;;;;;8.16;100.00;101064.22;689039;28;1087;-65
2022/09/23 00:15:45;;;;;;;4.38;2.90;;;;;;;8.11;100.00;101058.09;690043;28;1178;-64
2022/09/23 00:16:08;;;;;;;6.75;3.10;;;;;;;8.11;100.00;101061.56;690291;28;1317;-64
2022/09/23 00:16:32;;;;;;;5.65;3.00;;;;;;;8.12;100.00;101058.09;685131;28;1181;-63
2022/09/23 00:16:53;;;;;;;5.35;2.90;;;;;;;8.17;100.00;101051.22;688167;28;4375;-64
2022/09/23 00:17:13;;;;;;;5.25;2.80;;;;;;;8.21;100.00;101059.06;688959;28;2786;-65
2022/09/23 00:17:33;;;;;;;6.20;3.00;;;;;;;8.21;100.00;101051.25;685821;28;1180;-65
2022/09/23 00:17:54;;;;;;;6.23;2.97;;;;;;;8.17;100.00;101051.22;687130;28;1422;-64
2022/09/23 00:18:14;;;;;;;5.40;2.88;;;;;;;8.11;100.00;101058.97;686475;28;1096;-64
2022/09/23 00:18:35;;;;;;;4.83;3.00;;;;;;;8.10;100.00;101059.81;689031;28;1275;-64
2022/09/23 00:18:56;;;;;;;4.88;3.00;;;;;;;8.11;100.00;101065.88;690248;28;1335;-64
2022/09/23 00:19:16;;;;;;;5.13;3.10;;;;;;;8.11;100.00;101056.38;689390;28;1564;-64
2022/09/23 00:19:39;;;;;;;4.53;2.90;;;;;;;8.10;100.00;101056.31;689494;28;1584;-64
2022/09/23 00:19:59;;;;;;;5.50;3.10;;;;;;;8.08;100.00;101051.09;688505;28;4511;-64
2022/09/23 00:20:19;;;;;;;5.25;2.90;;;;;;;8.12;100.00;101055.50;689722;28;1116;-64
2022/09/23 00:20:40;;;;;;;5.70;2.83;;;;;;;8.18;100.00;101046.88;689267;28;1072;-64
2022/09/23 00:21:04;;;;;;;5.73;3.00;;;;;;;8.14;100.00;101050.28;689406;28;1303;-64
2022/09/23 00:21:25;;;;;;;4.82;2.85;;;;;;;8.10;100.00;101049.41;687155;28;1180;-63
2022/09/23 00:21:45;;;;;;;6.20;2.90;;;;;;;8.10;100.00;101054.63;686326;28;1394;-64
2022/09/23 00:22:06;;;;;;;6.53;3.00;;;;;;;8.12;100.00;101045.06;687253;28;1435;-63
2022/09/23 00:22:27;;;;;;;6.75;2.95;;;;;;;8.11;100.00;101051.16;686981;28;1339;-64
2022/09/23 00:22:47;;;;;;;5.00;2.72;;;;;;;8.13;100.00;101046.81;687303;28;4410;-65
2022/09/23 00:23:08;;;;;;;5.10;2.70;;;;;;;8.14;100.00;101045.09;690032;28;1267;-64
2022/09/23 00:23:28;;;;;;;4.47;2.80;;;;;;;8.13;100.00;101043.34;689768;28;1370;-63
2022/09/23 00:23:49;;;;;;;5.30;3.00;;;;;;;8.13;100.00;101054.63;690168;28;1367;-64
2022/09/23 00:24:09;;;;;;;5.20;2.88;;;;;;;8.10;100.00;101053.72;689463;28;1328;-64
2022/09/23 00:24:31;;;;;;;5.53;3.17;;;;;;;8.10;100.00;101049.41;690137;28;2765;-64
2022/09/23 00:24:51;;;;;;;5.45;3.00;;;;;;;8.11;100.00;101051.16;690045;28;1139;-63
2022/09/23 00:25:11;;;;;;;5.07;2.90;;;;;;;8.09;100.00;101045.03;689724;28;1457;-65
2022/09/23 00:25:32;;;;;;;5.20;2.92;;;;;;;8.11;100.00;101050.25;689450;28;1508;-64
2022/09/23 00:25:56;;;;;;;5.30;2.80;;;;;;;8.11;100.00;101042.44;689382;28;4398;-64
2022/09/23 00:26:19;;;;;;;5.07;2.92;;;;;;;8.14;100.00;101043.38;689285;28;1008;-63
2022/09/23 00:26:39;;;;;;;5.00;3.00;;;;;;;8.14;100.00;101038.16;689002;28;1554;-64
2022/09/23 00:27:00;;;;;;;5.50;3.20;;;;;;;8.14;100.00;101043.38;691358;28;1549;-64
2022/09/23 00:27:20;;;;;;;5.77;3.07;;;;;;;8.24;100.00;101046.06;692346;28;3344;-63
2022/09/23 00:27:41;;;;;;;5.75;2.80;;;;;;;8.26;100.00;101041.75;690007;28;1148;-65
2022/09/23 00:28:02;;;;;;;4.65;2.80;;;;;;;8.31;100.00;101038.34;689192;28;3431;-64
2022/09/23 00:28:22;;;;;;;4.70;2.73;;;;;;;8.30;100.00;101043.53;689950;28;1185;-64
2022/09/23 00:28:43;;;;;;;4.85;2.95;;;;;;;8.29;100.00;101045.28;688691;28;4414;-63
2022/09/23 00:29:04;;;;;;;4.50;2.72;;;;;;;8.30;100.00;101041.78;689057;28;1300;-64
2022/09/23 00:29:24;;;;;;;4.50;2.83;;;;;;;8.26;100.00;101045.22;690256;28;1922;-65
2022/09/23 00:29:44;;;;;;;4.80;2.90;;;;;;;8.20;100.00;101042.56;691866;28;1049;-64
2022/09/23 00:30:08;;;;;;;5.47;3.00;;;;;;;8.18;100.00;101037.34;691404;28;3112;-64
2022/09/23 00:30:28;;;;;;;5.03;2.85;;;;;;;8.24;100.00;101040.84;690539;28;1226;-64
2022/09/23 00:30:49;;;;;;;5.60;2.90;;;;;;;8.32;100.00;101047.03;689184;28;1152;-64
2022/09/23 00:31:35;;;;;;;5.47;3.05;;;;;;;8.25;100.00;101042.59;692160;28;1131;-64
2022/09/23 00:31:56;;;;;;;4.40;2.75;;;;;;;8.32;100.00;101039.19;690165;28;4430;-63
2022/09/23 00:32:16;;;;;;;4.50;2.70;;;;;;;8.38;100.00;101041.88;691278;28;1116;-64
2022/09/23 00:32:37;;;;;;;5.30;2.90;;;;;;;8.38;100.00;101043.59;687438;28;1651;-64
2022/09/23 00:32:57;;;;;;;5.43;2.93;;;;;;;8.44;100.00;101039.34;687619;28;1164;-64
2022/09/23 00:33:17;;;;;;;4.40;2.80;;;;;;;8.41;100.00;101044.53;686038;28;2703;-64
2022/09/23 00:33:39;;;;;;;5.28;2.80;;;;;;;8.35;100.00;101039.25;687512;28;1374;-64
2022/09/23 00:34:00;;;;;;;4.90;2.83;;;;;;;8.30;100.00;101040.94;688450;28;1553;-64
2022/09/23 00:34:21;;;;;;;5.25;2.80;;;;;;;8.27;100.00;101040.91;688244;28;1168;-64
2022/09/23 00:34:43;;;;;;;6.07;3.00;;;;;;;8.31;100.00;101038.34;689981;28;4461;-64
2022/09/23 00:35:04;;;;;;;5.30;2.90;;;;;;;8.30;100.00;101039.19;691044;28;1167;-64
2022/09/23 00:35:24;;;;;;;4.97;2.80;;;;;;;8.28;100.00;101038.31;689531;28;1215;-64
2022/09/23 00:35:46;;;;;;;5.13;2.90;;;;;;;8.26;100.00;101040.00;690594;28;1161;-64
2022/09/23 00:36:14;;;;;;;5.40;2.70;;;;;;;8.34;100.00;101037.50;690697;28;1185;-64
2022/09/23 00:36:34;;;;;;;5.63;3.08;;;;;;;8.29;100.00;101039.19;688917;28;1283;-65
2022/09/23 00:36:55;;;;;;;6.53;2.93;;;;;;;8.24;100.00;101036.53;690849;28;1485;-62
2022/09/23 00:37:16;;;;;;;7.40;2.80;;;;;;;8.25;100.00;101037.41;690018;28;2595;-64
2022/09/23 00:37:36;;;;;;;4.70;2.70;;;;;;;8.24;100.00;101035.63;690600;28;1260;-64
2022/09/23 00:37:56;;;;;;;5.23;2.90;;;;;;;8.30;100.00;101038.31;690541;28;4303;-64
2022/09/23 00:38:17;;;;;;;5.40;2.80;;;;;;;8.33;100.00;101034.03;690812;28;1458;-65
2022/09/23 00:38:37;;;;;;;4.70;2.80;;;;;;;8.36;100.00;101038.38;691085;28;1367;-64
2022/09/23 00:38:58;;;;;;;6.75;3.00;;;;;;;8.37;100.00;101036.66;687783;28;1474;-64
2022/09/23 00:39:19;;;;;;;6.05;2.75;;;;;;;8.31;100.00;101034.88;687790;28;1185;-65
2022/09/23 00:39:39;;;;;;;5.10;2.80;;;;;;;8.32;100.00;101037.50;689484;28;1489;-64
2022/09/23 00:40:00;;;;;;;4.97;2.63;;;;;;;8.42;100.00;101035.84;689768;28;2729;-64
2022/09/23 00:40:20;;;;;;;4.97;2.60;;;;;;;8.39;100.00;101041.03;690700;28;1382;-64
2022/09/23 00:40:48;;;;;;;4.82;2.90;;;;;;;8.36;100.00;101035.78;687193;28;5205;-65
2022/09/23 00:41:08;;;;;;;5.32;2.90;;;;;;;8.40;100.00;101040.16;689736;28;1216;-64
2022/09/23 00:41:29;;;;;;;5.07;3.00;;;;;;;8.47;100.00;101039.41;687589;28;1153;-64
2022/09/23 00:41:49;;;;;;;5.18;2.97;;;;;;;8.47;100.00;101043.72;687200;28;1283;-63
2022/09/23 00:42:15;;;;;;;4.37;2.90;;;;;;;8.41;100.00;101041.91;687412;28;1274;-63
2022/09/23 00:42:35;;;;;;;3.70;2.78;;;;;;;8.36;100.00;101043.59;688962;28;1324;-64
2022/09/23 00:42:55;;;;;;;4.63;2.90;;;;;;;8.31;100.00;101034.88;691476;28;1068;-63
2022/09/23 00:43:16;;;;;;;4.70;2.70;;;;;;;8.33;100.00;101040.97;692141;28;1440;-64
2022/09/23 00:43:56;;;;;;;5.17;2.93;;;;;;;8.31;100.00;101038.34;692207;28;1548;-64
2022/09/23 00:44:47;;;;;;;5.95;2.70;;;;;;;8.36;100.00;101035.78;691769;28;4960;-64
2022/09/23 00:45:10;;;;;;;4.90;2.83;;;;;;;8.36;100.00;101030.56;692896;28;1207;-64
2022/09/23 00:45:31;;;;;;;5.68;2.80;;;;;;;8.40;100.00;101039.28;693016;28;1447;-64
2022/09/23 00:45:51;;;;;;;5.25;2.88;;;;;;;8.38;100.00;101031.47;690798;28;1438;-64
2022/09/23 00:46:22;;;;;;;6.10;2.83;;;;;;;8.30;100.00;101035.72;690357;28;1319;-64
2022/09/23 00:46:42;;;;;;;6.57;3.00;;;;;;;8.30;100.00;101035.72;690368;28;5119;-64
2022/09/23 00:47:03;;;;;;;5.50;2.80;;;;;;;8.35;100.00;101036.66;691120;28;1160;-64
2022/09/23 00:47:42;;;;;;;4.95;2.67;;;;;;;8.40;100.00;101037.56;687907;28;1248;-65
2022/09/23 00:48:03;;;;;;;4.70;2.85;;;;;;;8.46;100.00;101035.06;690128;28;2914;-64
2022/09/23 00:48:24;;;;;;;4.68;2.90;;;;;;;8.42;100.00;101040.16;690349;28;1291;-64
2022/09/23 00:48:46;;;;;;;5.50;2.95;;;;;;;8.42;100.00;101041.06;691018;28;1357;-63
2022/09/23 00:49:25;;;;;;;5.03;3.00;;;;;;;8.40;100.00;101034.09;690534;28;1165;-64
2022/09/23 00:49:55;;;;;;;5.30;2.67;;;;;;;8.39;100.00;101035.84;689419;28;4351;-64
2022/09/23 00:50:29;;;;;;;4.70;2.83;;;;;;;8.46;100.00;101034.16;689439;28;1452;-64
2022/09/23 00:50:53;;;;;;;5.63;2.80;;;;;;;8.54;100.00;101039.47;690893;28;1334;-64
2022/09/23 00:51:18;;;;;;;4.40;2.90;;;;;;;8.52;100.00;101042.06;689643;28;1494;-64
2022/09/23 00:51:46;;;;;;;5.03;2.83;;;;;;;8.49;100.00;101037.69;687249;28;1363;-64
2022/09/23 00:52:13;;;;;;;5.35;2.95;;;;;;;8.50;100.00;101038.53;685950;28;1196;-64
2022/09/23 00:52:35;;;;;;;4.88;2.80;;;;;;;8.47;100.00;101033.31;686856;28;1264;-63
2022/09/23 00:52:58;;;;;;;5.10;2.83;;;;;;;8.42;100.00;101043.66;690012;28;4368;-63
2022/09/23 00:53:22;;;;;;;5.55;2.72;;;;;;;8.41;100.00;101039.31;689552;28;1227;-64
2022/09/23 00:53:45;;;;;;;4.22;2.65;;;;;;;8.43;100.00;101037.59;690125;28;2043;-64
2022/09/23 00:54:06;;;;;;;3.75;2.60;;;;;;;8.47;100.00;101033.31;690048;28;1113;-64
2022/09/23 00:54:28;;;;;;;4.80;2.78;;;;;;;8.47;100.00;101034.22;689223;28;2703;-65
2022/09/23 00:54:54;;;;;;;5.70;2.70;;;;;;;8.41;100.00;101036.69;686642;28;1053;-64
2022/09/23 00:55:36;;;;;;;4.85;2.75;;;;;;;8.38;100.00;101031.47;687605;28;1057;-63
2022/09/23 00:56:01;;;;;;;6.03;2.80;;;;;;;8.40;100.00;101031.47;687019;28;4664;-63
2022/09/23 00:56:23;;;;;;;5.80;2.70;;;;;;;8.50;100.00;101030.72;686538;28;1118;-63
2022/09/23 00:56:43;;;;;;;6.82;2.97;;;;;;;8.47;100.00;101039.41;689660;28;1398;-64
2022/09/23 00:57:04;;;;;;;6.20;2.88;;;;;;;8.40;100.00;101034.09;690058;28;1659;-63
2022/09/23 00:57:27;;;;;;;4.90;2.72;;;;;;;8.37;100.00;101034.06;690418;28;986;-64
2022/09/23 00:57:47;;;;;;;5.22;2.80;;;;;;;8.33;100.00;101030.53;688772;28;5137;-64
2022/09/23 00:58:11;;;;;;;5.73;2.60;;;;;;;8.38;100.00;101030.56;690502;28;1081;-63
2022/09/23 00:58:34;;;;;;;4.65;2.70;;;;;;;8.38;100.00;101034.06;689951;28;1277;-63
2022/09/23 00:58:55;;;;;;;4.93;2.67;;;;;;;8.35;100.00;101031.44;690393;28;4446;-64
2022/09/23 00:59:15;;;;;;;5.67;2.70;;;;;;;8.35;100.00;101037.50;686777;28;1118;-64
2022/09/23 00:59:36;;;;;;;5.82;2.80;;;;;;;8.37;100.00;101034.06;688458;28;1112;-65
2022/09/23 00:59:57;;;;;;;4.50;2.67;;;;;;;8.39;100.00;101030.63;691368;28;1179;-64
2022/09/23 01:00:17;;;;;;;3.95;2.92;;;;;;;8.43;100.00;101031.50;690231;28;988;-65
2022/09/23 01:00:37;;;;;;;4.47;3.00;;;;;;;8.47;100.00;101034.22;689708;28;2783;-64
2022/09/23 01:01:00;;;;;;;4.87;2.70;;;;;;;8.48;100.00;101035.94;690731;28;1125;-65
2022/09/23 01:01:20;;;;;;;5.00;2.60;;;;;;;8.46;100.00;101032.47;690920;28;1069;-63
2022/09/23 01:01:42;;;;;;;4.20;2.50;;;;;;;8.44;100.00;101035.88;689759;28;4541;-64
2022/09/23 01:02:03;;;;;;;4.65;2.63;;;;;;;8.44;100.00;101028.06;689956;28;1103;-63
2022/09/23 01:02:24;;;;;;;4.38;2.60;;;;;;;8.43;100.00;101027.19;689156;28;2229;-64
2022/09/23 01:02:45;;;;;;;4.95;2.60;;;;;;;8.46;100.00;101029.84;688446;28;1290;-64
2022/09/23 01:03:06;;;;;;;5.03;2.80;;;;;;;8.48;100.00;101035.06;686525;28;2614;-64
2022/09/23 01:03:26;;;;;;;4.10;2.77;;;;;;;8.49;100.00;101032.47;687871;28;962;-64
2022/09/23 01:03:48;;;;;;;4.32;2.70;;;;;;;8.41;100.00;101031.50;688268;28;1081;-64
2022/09/23 01:04:08;;;;;;;4.68;2.58;;;;;;;8.46;100.00;101029.84;688276;28;1015;-64
2022/09/23 01:04:29;;;;;;;4.47;2.65;;;;;;;8.51;100.00;101030.78;690364;28;1149;-64
2022/09/23 01:04:50;;;;;;;4.47;2.60;;;;;;;8.49;100.00;101026.41;690629;28;5492;-64
2022/09/23 01:05:10;;;;;;;4.80;2.77;;;;;;;8.40;100.00;101029.75;689843;28;1040;-64
2022/09/23 01:05:35;;;;;;;5.15;2.67;;;;;;;8.38;100.00;101027.97;690546;28;1419;-63
2022/09/23 01:05:56;;;;;;;5.28;2.72;;;;;;;8.37;100.00;101028.84;690266;28;2827;-64
2022/09/23 01:06:17;;;;;;;5.30;2.83;;;;;;;8.35;100.00;101031.44;690978;28;1001;-63
2022/09/23 01:06:37;;;;;;;4.37;2.87;;;;;;;8.33;100.00;101022.72;690383;28;1059;-63
2022/09/23 01:06:57;;;;;;;5.23;2.80;;;;;;;8.31;100.00;101021.84;691014;28;1068;-65
2022/09/23 01:07:18;;;;;;;5.30;2.80;;;;;;;8.32;100.00;101023.56;688055;28;960;-64
2022/09/23 01:07:38;;;;;;;4.05;2.65;;;;;;;8.33;100.00;101021.00;688663;28;1301;-63
2022/09/23 01:08:01;;;;;;;4.00;2.60;;;;;;;8.31;100.00;101021.84;687679;28;4419;-64
2022/09/23 01:08:23;;;;;;;4.38;2.60;;;;;;;8.31;100.00;101027.91;690198;28;994;-64
2022/09/23 01:08:45;;;;;;;4.47;2.85;;;;;;;8.33;100.00;101022.72;690907;28;989;-64
2022/09/23 01:09:06;;;;;;;4.75;2.72;;;;;;;8.37;100.00;101021.91;688978;28;1100;-64
2022/09/23 01:09:27;;;;;;;4.68;2.45;;;;;;;8.36;100.00;101025.34;690640;28;1922;-63
2022/09/23 01:09:48;;;;;;;5.05;2.70;;;;;;;8.36;100.00;101017.53;684682;28;2706;-65
2022/09/23 01:10:12;;;;;;;4.38;2.78;;;;;;;8.36;100.00;101020.16;684516;28;1251;-64
2022/09/23 01:10:55;;;;;;;5.07;2.72;;;;;;;8.37;100.00;101026.25;684351;28;1082;-63
2022/09/23 01:11:51;;;;;;;5.30;2.72;;;;;;;8.28;100.00;101025.28;686132;28;4902;-64
2022/09/23 01:12:17;;;;;;;4.68;3.10;;;;;;;8.30;100.00;101020.97;692258;28;1020;-65
2022/09/23 01:12:57;;;;;;;4.65;2.70;;;;;;;8.35;100.00;101026.22;691640;28;3022;-64
2022/09/23 01:13:31;;;;;;;6.40;2.90;;;;;;;8.38;100.00;101020.16;692052;28;1011;-64
2022/09/23 01:14:15;;;;;;;5.15;2.70;;;;;;;8.23;100.00;101024.34;691260;28;5451;-64
2022/09/23 01:14:51;;;;;;;4.30;2.65;;;;;;;8.19;100.00;101014.78;690432;28;1084;-64
2022/09/23 01:15:20;;;;;;;4.25;2.60;;;;;;;8.31;100.00;101020.09;689748;28;2617;-64
2022/09/23 01:15:48;;;;;;;5.30;2.72;;;;;;;8.25;100.00;101014.84;690796;28;1060;-64
2022/09/23 01:16:32;;;;;;;5.10;2.90;;;;;;;8.21;100.00;101020.00;690725;28;1073;-65
2022/09/23 01:17:22;;;;;;;4.47;2.80;;;;;;;8.37;100.00;101024.50;690126;28;4283;-64
2022/09/23 01:18:06;;;;;;;5.47;2.70;;;;;;;8.42;100.00;101016.72;689167;28;2766;-64
2022/09/23 01:18:39;;;;;;;5.07;2.70;;;;;;;8.42;100.00;101022.81;690747;28;1524;-64
2022/09/23 01:19:08;;;;;;;4.72;2.65;;;;;;;8.46;100.00;101022.03;690360;28;1100;-64
2022/09/23 01:19:59;;;;;;;5.03;2.75;;;;;;;8.54;100.00;101019.47;688232;28;1322;-64
2022/09/23 01:20:43;;;;;;;6.85;2.53;;;;;;;8.52;100.00;101016.88;687682;28;4968;-64
2022/09/23 01:21:13;;;;;;;4.82;2.90;;;;;;;8.39;100.00;101022.81;690155;28;1369;-64
2022/09/23 01:22:01;;;;;;;4.70;2.63;;;;;;;8.36;100.00;101020.16;689568;28;3017;-63
2022/09/23 01:22:52;;;;;;;5.53;3.05;;;;;;;8.38;100.00;101017.53;690415;28;1168;-64
2022/09/23 01:23:33;;;;;;;5.07;2.97;;;;;;;8.40;100.00;101019.31;687247;28;4732;-63
2022/09/23 01:24:30;;;;;;;4.38;2.60;;;;;;;8.44;100.00;101020.22;688670;28;956;-64
2022/09/23 01:24:56;;;;;;;5.95;3.00;;;;;;;8.41;100.00;101018.47;685607;28;2131;-63
2022/09/23 01:25:58;;;;;;;5.13;2.70;;;;;;;8.46;100.00;101019.44;685410;28;1009;-63
2022/09/23 01:26:53;;;;;;;4.30;2.90;;;;;;;8.33;100.00;101017.50;681727;29;4920;-64
2022/09/23 01:27:39;;;;;;;4.40;2.50;;;;;;;8.39;100.00;101016.69;690126;28;2780;-65
2022/09/23 01:28:25;;;;;;;4.78;2.80;;;;;;;8.41;100.00;101015.00;691108;28;1125;-63
2022/09/23 01:29:09;;;;;;;4.55;2.60;;;;;;;8.29;100.00;101013.13;689647;28;4446;-64
2022/09/23 01:29:57;;;;;;;5.43;2.55;;;;;;;8.26;100.00;101011.38;689928;28;1922;-65
2022/09/23 01:30:30;;;;;;;4.95;2.88;;;;;;;8.26;100.00;101011.38;692210;28;1385;-64
2022/09/23 01:30:59;;;;;;;4.78;2.60;;;;;;;8.33;100.00;101014.91;692547;28;1100;-64
2022/09/23 01:31:47;;;;;;;4.90;2.70;;;;;;;8.28;100.00;101012.28;690509;28;2776;-64
2022/09/23 01:32:18;;;;;;;4.88;2.75;;;;;;;8.26;100.00;101010.50;690353;28;4863;-63
2022/09/23 01:33:21;;;;;;;5.63;2.85;;;;;;;8.30;100.00;101012.28;689379;28;1048;-65
2022/09/23 01:34:00;;;;;;;5.45;2.67;;;;;;;8.29;100.00;101013.13;680671;28;1483;-65
2022/09/23 01:34:32;;;;;;;4.10;2.60;;;;;;;8.31;100.00;101012.28;690557;28;952;-64
2022/09/23 01:35:16;;;;;;;7.07;2.85;;;;;;;8.34;100.00;101014.91;690485;28;4351;-64
2022/09/23 01:35:39;;;;;;;4.93;2.63;;;;;;;8.33;100.00;101008.00;690233;28;1163;-63
2022/09/23 01:36:12;;;;;;;4.57;2.80;;;;;;;8.29;100.00;101016.63;690509;28;1472;-64
2022/09/23 01:36:38;;;;;;;4.05;2.42;;;;;;;8.34;100.00;101012.31;689491;28;1144;-64
2022/09/23 01:37:31;;;;;;;4.15;2.50;;;;;;;8.30;100.00;101009.69;687843;28;2945;-64
2022/09/23 01:38:02;;;;;;;5.07;2.78;;;;;;;8.35;100.00;101014.06;690159;28;4307;-64
2022/09/23 01:38:34;;;;;;;5.80;3.10;;;;;;;8.26;100.00;101007.91;690541;28;1271;-64
2022/09/23 01:39:06;;;;;;;4.53;2.70;;;;;;;8.11;100.00;101008.59;690345;28;1554;-63
2022/09/23 01:39:39;;;;;;;4.68;2.65;;;;;;;8.16;100.00;101012.13;691006;28;1066;-65
2022/09/23 01:40:13;;;;;;;5.18;2.85;;;;;;;8.14;100.00;101004.31;690282;28;3171;-64
2022/09/23 01:40:49;;;;;;;5.03;3.00;;;;;;;8.17;100.00;101009.53;690955;28;1007;-64
2022/09/23 01:41:38;;;;;;;7.20;2.70;;;;;;;8.16;100.00;101007.78;692206;28;4952;-64
2022/09/23 01:42:22;;;;;;;4.43;2.60;;;;;;;8.30;100.00;101009.69;688969;28;1167;-65
2022/09/23 01:42:50;;;;;;;5.03;2.65;;;;;;;8.39;100.00;101008.88;690426;28;3067;-63
2022/09/23 01:43:23;;;;;;;5.13;2.67;;;;;;;8.43;100.00;101005.44;690633;28;1030;-65
2022/09/23 01:44:08;;;;;;;5.47;3.05;;;;;;;8.19;100.00;101007.81;689996;28;4615;-64
2022/09/23 01:44:46;;;;;;;5.63;2.97;;;;;;;8.28;100.00;101004.47;689835;28;1063;-63
2022/09/23 01:45:24;;;;;;;5.70;2.80;;;;;;;8.23;100.00;101007.88;689038;28;2815;-64
2022/09/23 01:45:55;;;;;;;4.22;2.60;;;;;;;8.09;100.00;101005.13;690080;28;1019;-64
2022/09/23 01:46:24;;;;;;;5.03;2.80;;;;;;;8.04;100.00;101002.44;689639;28;996;-65
2022/09/23 01:46:52;;;;;;;4.97;2.90;;;;;;;8.11;100.00;101001.69;689887;28;4454;-64
2022/09/23 01:47:18;;;;;;;6.60;3.00;;;;;;;8.15;100.00;101003.44;689248;28;1338;-65
2022/09/23 01:47:48;;;;;;;5.07;2.80;;;;;;;8.13;100.00;101005.16;688820;28;1111;-65
2022/09/23 01:48:26;;;;;;;5.43;2.90;;;;;;;8.12;100.00;101007.75;689402;28;1428;-65
2022/09/23 01:48:58;;;;;;;4.30;2.78;;;;;;;8.08;100.00;101006.84;689888;28;944;-63
2022/09/23 01:49:27;;;;;;;5.07;2.75;;;;;;;8.12;100.00;101003.41;687426;28;1906;-63
2022/09/23 01:49:55;;;;;;;6.00;2.70;;;;;;;8.09;100.00;101011.19;689853;28;4583;-64
2022/09/23 01:51:20;;;;;;;4.57;2.70;;;;;;;8.17;100.00;101003.47;690846;28;1255;-64
2022/09/23 01:51:47;;;;;;;5.38;2.70;;;;;;;8.13;100.00;101007.75;690097;28;1182;-64
2022/09/23 01:52:21;;;;;;;5.43;2.90;;;;;;;8.17;100.00;101004.34;689783;28;1048;-64
2022/09/23 01:52:46;;;;;;;4.40;2.75;;;;;;;8.27;100.00;101005.31;691523;28;4514;-64
2022/09/23 01:53:17;;;;;;;4.43;2.75;;;;;;;8.14;100.00;100998.22;693251;28;935;-63
2022/09/23 01:54:02;;;;;;;4.95;2.92;;;;;;;8.11;100.00;101001.69;691979;28;1028;-63
2022/09/23 01:54:29;;;;;;;5.00;2.75;;;;;;;8.10;100.00;101004.25;691091;28;1121;-65
2022/09/23 01:54:59;;;;;;;4.68;2.70;;;;;;;8.01;100.00;100998.06;689659;28;1371;-64
2022/09/23 01:55:27;;;;;;;5.07;2.78;;;;;;;7.98;100.00;101002.41;685789;28;1298;-65
2022/09/23 01:55:53;;;;;;;4.47;2.90;;;;;;;8.01;100.00;101007.63;685111;28;4500;-64
2022/09/23 01:56:27;;;;;;;4.10;2.70;;;;;;;8.12;100.00;101003.41;687020;28;952;-64
2022/09/23 01:57:03;;;;;;;5.18;2.80;;;;;;;8.12;100.00;100998.19;686536;28;1117;-64
2022/09/23 01:57:32;;;;;;;4.53;2.65;;;;;;;8.15;100.00;101008.63;689744;28;2715;-64
2022/09/23 01:58:08;;;;;;;6.47;2.70;;;;;;;8.08;100.00;101004.22;690154;28;4893;-64
2022/09/23 01:58:47;;;;;;;6.32;2.80;;;;;;;8.15;100.00;101003.44;690272;28;1056;-64
2022/09/23 01:59:14;;;;;;;5.03;2.80;;;;;;;8.19;100.00;101002.59;685853;28;4886;-64
2022/09/23 01:59:42;;;;;;;4.43;2.53;;;;;;;8.23;100.00;101002.66;690418;28;1380;-63
2022/09/23 02:00:22;;;;;;;5.30;2.50;;;;;;;8.16;100.00;101005.19;690513;28;1177;-65
2022/09/23 02:00:49;;;;;;;5.45;2.70;;;;;;;8.11;100.00;101004.28;690335;28;1120;-64
2022/09/23 02:01:16;;;;;;;4.78;2.80;;;;;;;8.10;100.00;100996.44;690489;28;1281;-64
2022/09/23 02:01:50;;;;;;;5.03;2.90;;;;;;;8.05;100.00;101000.75;690184;28;1056;-64
2022/09/23 02:02:28;;;;;;;7.16;3.24;;;;;;;7.99;100.00;101009.34;688712;28;4756;-65
2022/09/23 02:02:56;;;;;;;4.55;2.80;;;;;;;7.97;100.00;101005.84;689974;28;1097;-64
2022/09/23 02:03:26;;;;;;;5.15;2.70;;;;;;;8.06;100.00;100998.16;690267;28;1135;-64
2022/09/23 02:03:54;;;;;;;5.07;2.75;;;;;;;8.13;100.00;101006.91;690114;28;1159;-64
2022/09/23 02:04:21;;;;;;;4.65;2.92;;;;;;;8.05;100.00;101003.34;691580;28;1034;-64
2022/09/23 02:04:52;;;;;;;4.90;2.72;;;;;;;7.98;100.00;101007.59;692487;28;4439;-64
2022/09/23 02:05:20;;;;;;;5.50;2.70;;;;;;;8.00;100.00;100998.06;690480;28;2798;-64
2022/09/23 02:05:50;;;;;;;4.15;2.88;;;;;;;7.99;100.00;100993.75;690025;28;1171;-64
2022/09/23 02:06:18;;;;;;;5.80;2.85;;;;;;;7.98;100.00;101007.59;688905;28;1254;-63
2022/09/23 02:06:46;;;;;;;5.28;2.80;;;;;;;8.03;100.00;101003.31;689374;28;1084;-64
2022/09/23 02:07:14;;;;;;;4.88;2.60;;;;;;;8.14;100.00;101006.03;688843;28;1087;-64
2022/09/23 02:07:58;;;;;;;4.30;2.70;;;;;;;8.05;100.00;101006.81;689005;28;1258;-65
2022/09/23 02:08:41;;;;;;;5.50;2.65;;;;;;;7.95;100.00;101007.56;689752;28;4902;-65